Time;durP1;ratioP1;P1;durP2;ratioP2;P2;SDS_P1;SDS_P2;PMS_P1;PMS_P2;Temp;Humidity;BMP_temperature;BMP_pressure;BME280_temperature;BME280_humidity;BME280_pressure;Samples;Min_cycle;Max_cycle;Signal;HPM_P1;HPM_P2
2020/12/19 05:10:51;;;;;;;293.50;278.50;;;5.00;99.90;;;;;;6183391;23;20436;-82
2020/12/19 05:23:03;;;;;;;308.70;292.77;;;4.80;99.90;;;;;;5875767;24;20443;-82
2020/12/19 06:02:56;;;;;;;213.80;201.03;;;5.00;99.90;;;;;;5972309;24;20174;-81
2020/12/19 06:05:52;;;;;;;;;;;;;;;;;;;;;
2020/12/19 07:43:08;;;;;;;255.87;242.20;;;5.60;99.90;;;;;;5855175;24;20516;-84
2020/12/19 08:06:21;;;;;;;216.50;205.33;;;6.00;99.90;;;;;;6188251;23;20449;-84
2020/12/19 09:37:23;;;;;;;46.42;42.35;;;7.30;99.90;;;;;;5939318;23;20437;-79
2020/12/19 09:40:23;;;;;;;;;;;;;;;;;;;;;
2020/12/19 09:58:05;;;;;;;67.57;62.83;;;7.70;99.90;;;;;;5839090;24;20748;-83
2020/12/19 10:00:31;;;;;;;71.13;65.77;;;7.70;99.90;;;;;;5979149;23;20194;-78
2020/12/19 10:03:05;;;;;;;67.60;63.00;;;7.90;99.90;;;;;;6026106;23;20428;-83
2020/12/19 10:05:38;;;;;;;66.90;61.97;;;7.90;99.90;;;;;;6154257;23;20775;-83
2020/12/19 10:08:05;;;;;;;61.97;57.13;;;8.00;99.90;;;;;;6154259;23;21159;-80
2020/12/19 10:10:38;;;;;;;48.57;44.43;;;8.00;99.90;;;;;;6163783;23;20940;-82
2020/12/19 10:13:13;;;;;;;39.23;35.73;;;8.20;99.90;;;;;;6162371;23;20429;-82
2020/12/19 10:15:39;;;;;;;37.27;33.47;;;8.30;99.90;;;;;;6154350;23;20407;-80
2020/12/19 10:18:07;;;;;;;34.07;30.63;;;8.30;99.90;;;;;;6154434;23;20441;-80
2020/12/19 10:20:35;;;;;;;34.30;31.13;;;8.40;99.90;;;;;;6164032;23;20429;-80
2020/12/19 10:29:22;;;;;;;30.60;27.53;;;8.50;99.90;;;;;;6174793;23;20836;-81
2020/12/19 10:39:16;;;;;;;29.17;26.20;;;8.70;99.90;;;;;;6059498;23;20416;-81
2020/12/19 10:45:10;;;;;;;30.83;25.27;;;8.90;99.90;;;;;;5971665;23;20556;-81
2020/12/19 10:48:01;;;;;;;;;;;;;;;;;;;;;
2020/12/19 10:50:46;;;;;;;29.17;24.97;;;9.10;99.90;;;;;;6187985;23;20503;-81
2020/12/19 10:53:33;;;;;;;26.50;21.23;;;9.20;99.90;;;;;;6184996;23;20471;-84
2020/12/19 10:56:15;;;;;;;;;;;;;;;;;;;;;
2020/12/19 10:58:49;;;;;;;26.53;21.90;;;9.50;99.90;;;;;;6184325;23;20398;-83
2020/12/19 11:04:04;;;;;;;25.40;16.17;;;9.60;99.90;;;;;;6181754;23;20413;-83
2020/12/19 11:06:59;;;;;;;18.80;14.97;;;9.80;99.90;;;;;;6193740;23;20413;-83
2020/12/19 11:09:25;;;;;;;21.13;15.50;;;9.90;99.90;;;;;;6180803;23;21325;-79
2020/12/19 11:11:57;;;;;;;21.17;15.30;;;10.10;99.90;;;;;;6192258;23;20524;-81
2020/12/19 11:14:37;;;;;;;19.47;14.13;;;10.20;99.90;;;;;;6181722;23;20549;-81
2020/12/19 11:17:19;;;;;;;;;;;;;;;;;;;;;
2020/12/19 11:19:48;;;;;;;19.00;13.07;;;10.50;99.90;;;;;;6183942;23;20438;-81
2020/12/19 11:22:36;;;;;;;16.67;13.20;;;10.50;99.90;;;;;;6184016;23;20401;-80
2020/12/19 11:25:04;;;;;;;19.07;13.80;;;10.50;99.90;;;;;;6184139;23;20424;-81
2020/12/19 11:30:19;;;;;;;17.63;11.97;;;10.80;99.90;;;;;;6174836;23;20434;-83
2020/12/19 11:32:49;;;;;;;21.20;12.00;;;10.90;99.90;;;;;;6186511;23;20427;-81
2020/12/19 11:35:24;;;;;;;15.83;11.27;;;11.00;99.90;;;;;;6186152;23;20440;-81
2020/12/19 11:38:25;;;;;;;;;;;;;;;;;;;;;
2020/12/19 11:40:56;;;;;;;16.87;10.37;;;11.60;98.30;;;;;;6119324;23;20534;-80
2020/12/19 11:43:30;;;;;;;15.33;10.83;;;12.20;95.30;;;;;;6184875;23;20403;-84
2020/12/19 11:46:08;;;;;;;14.90;10.43;;;12.60;89.20;;;;;;6195658;23;20408;-81
2020/12/19 11:48:47;;;;;;;;;;;;;;;;;;;;;
2020/12/19 11:51:14;;;;;;;14.43;8.53;;;13.20;65.60;;;;;;6184841;23;20445;-82
2020/12/19 11:54:21;;;;;;;14.67;9.97;;;13.60;58.60;;;;;;6195611;23;20407;-81
2020/12/19 11:56:50;;;;;;;12.80;8.00;;;13.70;54.70;;;;;;6103125;23;20902;-82
2020/12/19 11:59:21;;;;;;;13.43;8.20;;;13.90;53.00;;;;;;6094190;23;20415;-82
2020/12/19 12:02:01;;;;;;;13.73;7.97;;;14.00;47.70;;;;;;6196031;23;20484;-82
2020/12/19 12:04:27;;;;;;;10.27;7.10;;;14.10;44.70;;;;;;6195825;23;20424;-82
2020/12/19 12:07:01;;;;;;;14.90;8.10;;;14.10;44.40;;;;;;6185568;23;20763;-82
2020/12/19 12:10:14;;;;;;;10.97;7.00;;;14.10;43.50;;;;;;6195498;23;20409;-83
2020/12/19 12:13:07;;;;;;;12.23;6.90;;;14.10;41.50;;;;;;6194558;23;20402;-82
2020/12/19 12:16:11;;;;;;;11.53;6.70;;;14.40;40.20;;;;;;6179977;23;20424;-83
2020/12/19 13:21:02;;;;;;;7.53;3.13;;;11.70;57.40;;;;;;5868410;24;20187;-83
2020/12/19 13:24:05;;;;;;;7.83;4.10;;;11.60;58.60;;;;;;5905959;24;20424;-83
2020/12/19 13:33:21;;;;;;;6.13;3.30;;;11.30;62.20;;;;;;6112323;23;20420;-83
2020/12/19 13:36:38;;;;;;;;;;;;;;;;;;;;;
2020/12/19 13:39:55;;;;;;;;;;;;;;;;;;;;;
2020/12/19 13:42:34;;;;;;;7.50;3.50;;;11.30;62.20;;;;;;6191838;23;20472;-82
2020/12/19 13:55:20;;;;;;;9.03;4.67;;;11.20;63.80;;;;;;6066578;23;20424;-86
2020/12/19 14:01:38;;;;;;;6.53;3.33;;;11.20;62.10;;;;;;5952144;23;20425;-83
2020/12/19 14:04:20;;;;;;;7.90;3.70;;;11.30;62.20;;;;;;6148572;23;20424;-83
2020/12/19 14:07:15;;;;;;;;;;;;;;;;;;;;;
2020/12/19 14:10:21;;;;;;;7.93;3.83;;;11.30;60.50;;;;;;6194602;23;20429;-84
2020/12/19 14:13:08;;;;;;;;;;;;;;;;;;;;;
2020/12/19 14:19:10;;;;;;;;;;;;;;;;;;;;;
2020/12/19 14:22:12;;;;;;;7.10;3.73;;;11.10;63.30;;;;;;6194739;23;20794;-83
2020/12/19 14:25:18;;;;;;;8.70;3.37;;;11.10;62.40;;;;;;6174378;23;20720;-83
2020/12/19 14:35:13;;;;;;;;;;;;;;;;;;;;;
2020/12/19 14:47:44;;;;;;;7.77;3.83;;;11.20;59.60;;;;;;5914454;24;20760;-84
2020/12/19 15:39:58;;;;;;;12.53;5.87;;;10.60;71.90;;;;;;5960954;24;21061;-87
2020/12/19 15:43:15;;;;;;;;;;;;;;;;;;;;;
2020/12/19 15:45:55;;;;;;;10.97;7.27;;;10.40;77.10;;;;;;6000954;23;20518;-84
2020/12/19 15:48:27;;;;;;;10.97;7.43;;;10.30;77.60;;;;;;6155640;23;20460;-83
2020/12/19 15:50:55;;;;;;;11.27;6.73;;;10.30;79.00;;;;;;6165241;23;20437;-83
2020/12/19 15:53:28;;;;;;;14.47;7.13;;;10.40;79.40;;;;;;6155525;23;20402;-83
2020/12/19 15:56:01;;;;;;;12.23;6.87;;;10.40;80.50;;;;;;6165323;23;20406;-83
2020/12/19 15:58:36;;;;;;;10.87;6.80;;;10.30;81.30;;;;;;6153631;23;20934;-83
2020/12/19 16:01:09;;;;;;;10.80;7.60;;;10.30;81.30;;;;;;6155037;23;20493;-83
2020/12/19 16:03:35;;;;;;;13.87;7.60;;;10.30;81.00;;;;;;6165201;23;20493;-81
2020/12/19 16:06:08;;;;;;;9.80;7.03;;;10.40;81.60;;;;;;6165268;23;20793;-81
2020/12/19 16:08:37;;;;;;;11.87;6.43;;;10.40;80.30;;;;;;6164928;23;20414;-81
2020/12/19 16:11:04;;;;;;;10.10;6.33;;;10.50;79.90;;;;;;6165169;23;20788;-81
2020/12/19 16:13:35;;;;;;;10.00;6.40;;;10.40;79.60;;;;;;6160446;23;20421;-80
2020/12/19 16:16:02;;;;;;;18.63;10.40;;;10.50;79.50;;;;;;6155371;23;20901;-81
2020/12/19 16:21:51;;;;;;;13.73;6.87;;;10.40;78.90;;;;;;5984497;23;20479;-80
2020/12/19 16:24:19;;;;;;;11.83;7.70;;;10.40;78.60;;;;;;6155512;23;20517;-82
2020/12/19 16:26:52;;;;;;;11.30;7.60;;;10.50;78.10;;;;;;6164941;23;20434;-81
2020/12/19 16:29:29;;;;;;;10.97;7.13;;;10.50;77.40;;;;;;6183509;23;20486;-81
2020/12/19 16:32:07;;;;;;;10.10;6.33;;;10.60;76.80;;;;;;6196063;23;20450;-81
2020/12/19 16:34:35;;;;;;;11.63;7.20;;;10.50;76.90;;;;;;6185595;23;20407;-80
2020/12/19 16:37:11;;;;;;;10.13;6.50;;;10.50;76.10;;;;;;6195400;23;20492;-80
2020/12/19 16:39:38;;;;;;;10.50;7.03;;;10.60;78.10;;;;;;6186062;23;20479;-81
2020/12/19 16:42:07;;;;;;;11.33;6.93;;;10.50;77.40;;;;;;6184040;23;20908;-80
2020/12/19 16:44:40;;;;;;;14.93;8.03;;;10.40;77.30;;;;;;6186156;23;20432;-80
2020/12/19 16:47:57;;;;;;;;;;;;;;;;;;;;;
2020/12/19 16:51:12;;;;;;;11.43;8.10;;;10.40;77.30;;;;;;5987258;23;20481;-82
2020/12/19 16:54:27;;;;;;;10.47;7.40;;;10.50;77.40;;;;;;5897391;24;20518;-81
2020/12/19 16:56:55;;;;;;;9.93;6.90;;;10.40;77.30;;;;;;5979228;24;20407;-81
2020/12/19 16:59:22;;;;;;;11.60;7.90;;;10.40;77.50;;;;;;6036077;23;20412;-80
2020/12/19 17:02:00;;;;;;;;;;;;;;;;;;;;;
2020/12/19 17:04:27;;;;;;;15.50;9.00;;;10.30;79.30;;;;;;6118636;23;20468;-81
2020/12/19 17:06:53;;;;;;;15.07;9.17;;;10.30;80.20;;;;;;6185872;23;20405;-81
2020/12/19 17:09:21;;;;;;;14.27;8.63;;;10.30;81.20;;;;;;6195143;23;20415;-80
2020/12/19 17:11:53;;;;;;;13.33;8.40;;;10.20;82.00;;;;;;6184303;23;20474;-80
2020/12/19 17:14:20;;;;;;;16.33;7.67;;;10.20;83.30;;;;;;6195869;23;20412;-81
2020/12/19 17:16:50;;;;;;;13.20;7.77;;;10.20;83.40;;;;;;6185571;23;20707;-81
2020/12/19 17:19:18;;;;;;;11.97;7.20;;;10.20;81.10;;;;;;6185745;23;20406;-80
2020/12/19 17:22:00;;;;;;;12.17;8.30;;;10.30;82.80;;;;;;6195439;23;20422;-81
2020/12/19 17:24:28;;;;;;;13.10;9.13;;;10.30;84.50;;;;;;6185312;23;20401;-80
2020/12/19 17:26:54;;;;;;;14.40;9.10;;;10.20;85.90;;;;;;6183548;23;20405;-80
2020/12/19 17:29:36;;;;;;;16.40;9.43;;;10.20;87.60;;;;;;6185245;23;20444;-81
2020/12/19 17:32:04;;;;;;;11.93;8.60;;;10.20;88.40;;;;;;6133312;23;20468;-81
2020/12/19 17:34:32;;;;;;;13.40;9.87;;;10.10;89.60;;;;;;6194889;23;20410;-80
2020/12/19 17:37:02;;;;;;;13.33;10.17;;;10.10;90.10;;;;;;6194793;23;20405;-80
2020/12/19 17:39:29;;;;;;;13.73;9.57;;;10.10;90.30;;;;;;6194810;23;20468;-81
2020/12/19 17:42:00;;;;;;;13.63;9.40;;;10.10;90.30;;;;;;6183713;23;20397;-80
2020/12/19 17:44:41;;;;;;;12.10;9.00;;;10.10;90.50;;;;;;6195186;23;20401;-80
2020/12/19 17:47:26;;;;;;;15.07;9.50;;;10.20;90.60;;;;;;6195607;23;20402;-81
2020/12/19 17:49:53;;;;;;;13.47;9.33;;;10.20;91.00;;;;;;6185362;23;20401;-81
2020/12/19 17:52:37;;;;;;;16.70;11.90;;;10.10;91.00;;;;;;6195040;23;20445;-81
2020/12/19 17:55:38;;;;;;;11.20;7.17;;;10.00;91.00;;;;;;6184704;23;20401;-83
2020/12/19 17:58:26;;;;;;;10.10;7.63;;;10.20;90.70;;;;;;6127928;23;21299;-84
2020/12/19 18:01:42;;;;;;;12.30;6.43;;;10.30;88.80;;;;;;6194985;23;20416;-83
2020/12/19 18:07:27;;;;;;;12.97;7.63;;;10.60;82.90;;;;;;6103051;23;20788;-84
2020/12/19 18:09:59;;;;;;;10.60;7.33;;;10.70;80.70;;;;;;6192648;23;20443;-83
2020/12/19 18:12:43;;;;;;;10.20;6.27;;;10.70;80.90;;;;;;6190636;23;20924;-83
2020/12/19 18:15:12;;;;;;;14.17;6.53;;;10.60;82.00;;;;;;6192288;23;20408;-83
2020/12/19 18:17:46;;;;;;;12.57;7.40;;;10.50;82.90;;;;;;6191949;23;20456;-83
2020/12/19 18:20:18;;;;;;;12.67;6.63;;;10.60;82.50;;;;;;6191881;23;20419;-83
2020/12/19 18:22:47;;;;;;;17.30;8.20;;;10.40;83.80;;;;;;6181916;23;20437;-83
2020/12/19 18:25:15;;;;;;;8.63;5.93;;;10.20;86.30;;;;;;6191611;23;20409;-83
2020/12/19 18:27:48;;;;;;;9.20;6.27;;;10.30;86.00;;;;;;6180836;23;20397;-83
2020/12/19 18:30:24;;;;;;;11.33;7.37;;;10.50;83.00;;;;;;6182193;23;20428;-83
2020/12/19 18:32:59;;;;;;;11.23;6.00;;;10.60;79.50;;;;;;6182756;23;20774;-82
2020/12/19 18:35:41;;;;;;;10.17;5.77;;;10.50;81.70;;;;;;6181751;23;20404;-83
2020/12/19 18:38:11;;;;;;;16.67;9.67;;;10.20;84.80;;;;;;6191979;23;20419;-83
2020/12/19 18:40:44;;;;;;;15.40;9.27;;;9.90;88.30;;;;;;6191969;23;20433;-83
2020/12/19 18:43:12;;;;;;;14.53;10.10;;;9.80;90.80;;;;;;6190328;23;20806;-82
2020/12/19 18:45:44;;;;;;;16.07;10.53;;;9.60;93.20;;;;;;6191839;23;20908;-83
2020/12/19 18:48:15;;;;;;;20.17;13.27;;;9.30;96.40;;;;;;6183447;23;20487;-82
2020/12/19 18:51:01;;;;;;;13.57;12.07;;;9.30;99.90;;;;;;6183823;23;20425;-83
2020/12/19 18:53:33;;;;;;;18.77;14.80;;;9.20;99.90;;;;;;6184312;23;20425;-84
2020/12/19 18:56:28;;;;;;;17.80;15.20;;;9.10;99.90;;;;;;6184159;23;20401;-82
2020/12/19 18:58:57;;;;;;;21.27;16.60;;;9.10;99.90;;;;;;6014390;23;20505;-81
2020/12/19 19:04:42;;;;;;;19.67;17.73;;;8.90;99.90;;;;;;6075315;23;20508;-81
2020/12/19 19:07:08;;;;;;;21.10;19.30;;;9.00;99.90;;;;;;6186581;23;20416;-81
2020/12/19 19:09:35;;;;;;;21.00;19.10;;;9.00;99.90;;;;;;6196191;23;20417;-81
2020/12/19 19:12:06;;;;;;;21.13;19.23;;;9.10;99.90;;;;;;6185063;23;20445;-81
2020/12/19 19:14:36;;;;;;;19.87;17.97;;;9.10;99.90;;;;;;6145901;23;20441;-83
2020/12/19 19:17:06;;;;;;;21.70;19.80;;;9.10;99.90;;;;;;6186494;23;20423;-82
2020/12/19 19:19:32;;;;;;;22.70;20.80;;;9.00;99.90;;;;;;6186746;23;20401;-83
2020/12/19 19:21:59;;;;;;;23.73;21.47;;;8.80;99.90;;;;;;6196392;23;20430;-83
2020/12/19 19:24:35;;;;;;;21.80;19.97;;;8.70;99.90;;;;;;6186866;23;20405;-82
2020/12/19 19:27:02;;;;;;;23.30;21.50;;;8.50;99.90;;;;;;6195038;23;20412;-82
2020/12/19 19:29:29;;;;;;;29.73;27.47;;;8.50;99.90;;;;;;6195997;23;20488;-84
2020/12/19 19:32:04;;;;;;;33.80;31.40;;;8.30;99.90;;;;;;6186454;23;20433;-83
2020/12/19 19:34:33;;;;;;;37.97;35.10;;;8.30;99.90;;;;;;6196388;23;20717;-82
2020/12/19 19:37:06;;;;;;;43.77;40.80;;;8.20;99.90;;;;;;6196128;23;20412;-82
2020/12/19 19:39:33;;;;;;;44.90;42.00;;;8.40;99.90;;;;;;6186566;23;20401;-82
2020/12/19 19:42:01;;;;;;;46.83;43.60;;;8.40;99.90;;;;;;6184920;23;21426;-82
2020/12/19 19:44:29;;;;;;;47.67;44.73;;;8.40;99.90;;;;;;6186196;23;21067;-83
2020/12/19 19:46:55;;;;;;;53.73;50.03;;;8.50;99.90;;;;;;6186192;23;20885;-83
2020/12/19 19:49:26;;;;;;;53.90;50.30;;;8.50;99.90;;;;;;6185992;23;20404;-83
2020/12/19 19:51:54;;;;;;;51.60;48.53;;;8.80;99.90;;;;;;6196525;23;20429;-83
2020/12/19 19:54:24;;;;;;;35.30;32.93;;;9.10;99.90;;;;;;6196316;23;20428;-84
2020/12/19 19:57:02;;;;;;;24.63;22.33;;;9.30;99.90;;;;;;6184568;23;20417;-84
2020/12/19 19:59:32;;;;;;;18.80;17.00;;;9.40;99.90;;;;;;6185876;23;20401;-83
2020/12/19 20:02:02;;;;;;;17.17;14.20;;;9.60;99.90;;;;;;6196065;23;20889;-83
2020/12/19 20:04:40;;;;;;;15.40;13.70;;;9.70;99.90;;;;;;6196342;23;20470;-83
2020/12/19 20:10:09;;;;;;;19.23;12.60;;;9.50;99.90;;;;;;6195823;23;20915;-83
2020/12/19 20:12:36;;;;;;;14.87;12.23;;;9.40;99.90;;;;;;6184452;23;20901;-82
2020/12/19 20:15:02;;;;;;;17.33;11.80;;;9.40;99.90;;;;;;6196303;23;20408;-83
2020/12/19 20:17:31;;;;;;;13.80;11.40;;;9.30;99.90;;;;;;6196058;23;20413;-84
2020/12/19 20:19:58;;;;;;;16.70;11.17;;;9.30;99.90;;;;;;6196244;23;20406;-82
2020/12/19 20:22:24;;;;;;;12.63;11.10;;;9.40;99.90;;;;;;6195904;23;20437;-82
2020/12/19 20:24:51;;;;;;;14.20;11.90;;;9.40;99.90;;;;;;6195994;23;20412;-83
2020/12/19 20:27:18;;;;;;;13.30;11.67;;;9.50;99.90;;;;;;6193949;23;20499;-82
2020/12/19 20:29:44;;;;;;;11.30;10.10;;;9.50;99.90;;;;;;6195482;23;20512;-83
2020/12/19 20:32:11;;;;;;;10.63;9.60;;;9.60;99.90;;;;;;6185509;23;20445;-83
2020/12/19 20:34:40;;;;;;;10.83;9.53;;;9.50;99.90;;;;;;6195704;23;20432;-82
2020/12/19 20:37:08;;;;;;;10.43;9.37;;;9.60;99.90;;;;;;6195814;23;20413;-83
2020/12/19 20:39:34;;;;;;;11.20;10.10;;;9.50;99.90;;;;;;6186152;23;20413;-82
2020/12/19 20:42:07;;;;;;;9.07;8.03;;;9.40;99.90;;;;;;6184444;23;20405;-82
2020/12/19 20:44:36;;;;;;;10.90;9.17;;;9.40;99.90;;;;;;6185623;23;20442;-83
2020/12/19 20:47:08;;;;;;;9.63;8.73;;;9.30;99.90;;;;;;6195482;23;20401;-83
2020/12/19 20:49:34;;;;;;;10.80;9.80;;;9.20;99.90;;;;;;6195735;23;20397;-83
2020/12/19 20:52:02;;;;;;;10.40;9.40;;;9.10;99.90;;;;;;6185648;23;20437;-81
2020/12/19 20:54:28;;;;;;;13.70;10.90;;;9.10;99.90;;;;;;6195667;23;20413;-82
2020/12/19 20:57:04;;;;;;;12.10;10.97;;;9.00;99.90;;;;;;6194303;23;20905;-82
2020/12/19 20:59:30;;;;;;;13.73;12.63;;;8.80;99.90;;;;;;6195679;23;20408;-83
2020/12/19 21:02:00;;;;;;;18.93;17.30;;;8.80;99.90;;;;;;6195111;23;20808;-83
2020/12/19 21:04:26;;;;;;;22.10;20.23;;;8.70;99.90;;;;;;6185827;23;20405;-83
2020/12/19 21:06:54;;;;;;;24.37;22.47;;;8.60;99.90;;;;;;6185777;23;20405;-83
2020/12/19 21:12:38;;;;;;;28.70;26.70;;;8.60;99.90;;;;;;6065274;23;20448;-82
2020/12/19 21:15:05;;;;;;;35.70;33.10;;;8.50;99.90;;;;;;6184761;23;20811;-82
2020/12/19 21:17:35;;;;;;;58.17;47.37;;;8.60;99.90;;;;;;6195881;23;20744;-83
2020/12/19 21:20:04;;;;;;;55.13;48.70;;;8.50;99.90;;;;;;6194994;23;20436;-83
2020/12/19 21:22:43;;;;;;;;;;;;;;;;;;;;;
2020/12/19 21:25:10;;;;;;;39.97;36.97;;;8.70;99.90;;;;;;6185123;23;20409;-83
2020/12/19 21:27:42;;;;;;;35.33;32.97;;;8.70;99.90;;;;;;6184133;23;20409;-83
2020/12/19 21:30:15;;;;;;;36.07;33.23;;;8.60;99.90;;;;;;6194690;23;21023;-82
2020/12/19 21:32:44;;;;;;;33.40;31.13;;;8.60;99.90;;;;;;6185355;23;20516;-82
2020/12/19 21:35:24;;;;;;;;;;;;;;;;;;;;;
2020/12/19 21:38:14;;;;;;;;;;;;;;;;;;;;;
2020/12/19 21:40:40;;;;;;;32.60;30.40;;;8.50;99.90;;;;;;6195118;23;20393;-84
2020/12/19 21:43:11;;;;;;;34.90;32.40;;;8.50;99.90;;;;;;6183984;23;20397;-83
2020/12/19 21:46:02;;;;;;;35.43;33.00;;;8.50;99.90;;;;;;6184916;23;20454;-83
2020/12/19 21:48:37;;;;;;;35.60;33.10;;;8.40;99.90;;;;;;6195381;23;20409;-83
2020/12/19 21:51:04;;;;;;;37.93;35.47;;;8.40;99.90;;;;;;6194831;23;20436;-83
2020/12/19 21:53:30;;;;;;;39.17;36.23;;;8.30;99.90;;;;;;6194979;23;20413;-82
2020/12/19 21:55:57;;;;;;;37.40;35.10;;;8.30;99.90;;;;;;6185383;23;20428;-82
2020/12/19 21:58:24;;;;;;;40.60;37.77;;;8.40;99.90;;;;;;6184109;23;20397;-83
2020/12/19 22:00:53;;;;;;;40.97;38.47;;;8.20;99.90;;;;;;6185385;23;20397;-82
2020/12/19 22:03:22;;;;;;;45.10;41.90;;;8.30;99.90;;;;;;6195564;23;20413;-83
2020/12/19 22:05:56;;;;;;;45.27;42.03;;;8.30;99.90;;;;;;6185336;23;20444;-83
2020/12/19 22:08:24;;;;;;;43.73;41.03;;;8.30;99.90;;;;;;6194933;23;20412;-83
2020/12/19 22:10:52;;;;;;;45.53;42.63;;;8.40;99.90;;;;;;6194819;23;20507;-82
2020/12/19 22:13:20;;;;;;;42.30;39.47;;;8.40;99.90;;;;;;6183514;23;20889;-83
2020/12/19 22:15:48;;;;;;;40.80;38.20;;;8.40;99.90;;;;;;6185042;23;20401;-82
2020/12/19 22:18:14;;;;;;;40.77;38.00;;;8.40;99.90;;;;;;6184995;23;20443;-83
2020/12/19 22:20:42;;;;;;;41.13;37.70;;;8.40;99.90;;;;;;6184629;23;20443;-83
2020/12/19 22:23:10;;;;;;;38.30;35.27;;;8.40;99.90;;;;;;6186418;23;20413;-83
2020/12/19 22:25:40;;;;;;;37.60;35.20;;;8.20;99.90;;;;;;6186898;23;20397;-83
2020/12/19 22:28:08;;;;;;;40.77;37.83;;;8.20;99.90;;;;;;6185575;23;20412;-82
2020/12/19 22:30:36;;;;;;;39.93;37.13;;;8.10;99.90;;;;;;6186655;23;20401;-82
2020/12/19 22:33:07;;;;;;;44.07;41.00;;;8.00;99.90;;;;;;6187103;23;20402;-82
2020/12/19 22:35:34;;;;;;;46.87;43.77;;;8.00;99.90;;;;;;6186799;23;20402;-83
2020/12/19 22:38:00;;;;;;;49.53;46.50;;;8.10;99.90;;;;;;6186897;23;20408;-82
2020/12/19 22:40:28;;;;;;;54.73;50.93;;;8.10;99.90;;;;;;6197086;23;20419;-82
2020/12/19 22:42:54;;;;;;;55.50;52.40;;;8.10;99.90;;;;;;6185743;23;20459;-82
2020/12/19 22:45:22;;;;;;;61.13;57.43;;;8.10;99.90;;;;;;6196722;23;20405;-82
2020/12/19 22:47:50;;;;;;;57.63;54.00;;;8.20;99.90;;;;;;6186961;23;20397;-82
2020/12/19 22:50:17;;;;;;;58.13;54.77;;;8.20;99.90;;;;;;6186962;23;20408;-82
2020/12/19 22:52:50;;;;;;;60.47;56.90;;;8.20;99.90;;;;;;6186604;23;20432;-83
2020/12/19 22:55:18;;;;;;;60.10;56.47;;;8.30;99.90;;;;;;6186644;23;20408;-82
2020/12/19 22:57:47;;;;;;;60.83;56.90;;;8.10;99.90;;;;;;6195481;23;20413;-82
2020/12/19 23:00:21;;;;;;;66.97;62.20;;;8.10;99.90;;;;;;6196920;23;20405;-82
2020/12/19 23:03:00;;;;;;;62.97;58.53;;;8.20;99.90;;;;;;6186932;23;20416;-83
2020/12/19 23:05:29;;;;;;;54.00;51.00;;;8.30;99.90;;;;;;6196932;23;20456;-81
2020/12/19 23:07:57;;;;;;;53.37;49.83;;;8.50;99.90;;;;;;6196972;23;20405;-81
2020/12/19 23:10:24;;;;;;;46.43;43.43;;;8.50;99.90;;;;;;6186815;23;20479;-81
2020/12/19 23:12:52;;;;;;;43.23;40.20;;;8.60;99.90;;;;;;6194808;23;20429;-81
2020/12/19 23:15:18;;;;;;;43.03;39.73;;;8.60;99.90;;;;;;6186694;23;20409;-81
2020/12/19 23:17:45;;;;;;;36.00;33.27;;;8.60;99.90;;;;;;6186886;23;20406;-81
2020/12/19 23:20:14;;;;;;;31.37;29.03;;;8.50;99.90;;;;;;6186565;23;20468;-81
2020/12/19 23:22:41;;;;;;;32.60;30.20;;;8.60;99.90;;;;;;6196471;23;20402;-81
2020/12/19 23:25:10;;;;;;;33.67;30.73;;;8.50;99.90;;;;;;6196628;23;20720;-80
2020/12/19 23:27:36;;;;;;;33.13;30.77;;;8.50;99.90;;;;;;6194840;23;20412;-81
2020/12/19 23:30:10;;;;;;;29.93;27.63;;;8.60;99.90;;;;;;6186496;23;20495;-81
2020/12/19 23:32:37;;;;;;;26.70;24.57;;;8.60;99.90;;;;;;6186386;23;20439;-81
2020/12/19 23:35:04;;;;;;;27.97;25.97;;;8.60;99.90;;;;;;6186664;23;20401;-81
2020/12/19 23:37:32;;;;;;;31.07;28.67;;;8.50;99.90;;;;;;6186742;23;20405;-81
2020/12/19 23:40:00;;;;;;;32.67;30.17;;;8.40;99.90;;;;;;6195910;23;20423;-81
2020/12/19 23:42:26;;;;;;;29.37;27.10;;;8.40;99.90;;;;;;6184745;23;20416;-80
2020/12/19 23:44:53;;;;;;;28.77;26.57;;;8.30;99.90;;;;;;6196518;23;20476;-81
2020/12/19 23:47:23;;;;;;;32.33;29.83;;;8.10;99.90;;;;;;6186120;23;20448;-81
2020/12/19 23:49:51;;;;;;;37.30;34.50;;;8.10;99.90;;;;;;6196424;23;20408;-81
2020/12/19 23:52:20;;;;;;;38.70;36.20;;;8.10;99.90;;;;;;6196486;23;20433;-81
2020/12/19 23:54:46;;;;;;;41.07;37.40;;;8.00;99.90;;;;;;6186261;23;20412;-81
2020/12/19 23:57:14;;;;;;;42.63;39.67;;;7.90;99.90;;;;;;6185081;23;20444;-80
2020/12/19 23:59:41;;;;;;;48.10;44.63;;;7.90;99.90;;;;;;6196118;23;20813;-80
